Ithaca, Nebraska
Current Conditions -  °F | °C
As of 2:35 PM on Saturday 25 Oct 2014 (Local Time) from KAHQ Reporting Station
Clear Clear  
Wind Chill: 73°   Ceiling: Unl
Heat Index: 73°   Visibility: 10mi
Dew Point: 35°   Wind: 5mph
Humidity: 25%   Direction: 70°ENE
Pressure: 30.08"   Gusts: NA
Location:  41.16°N, 96.54°W
Report Text: KAHQ 251935Z AUTO 07004KT 10SM CLR 23/02 A3008 RMK AO2 T02260018
Loading
Personal Weather Stations






























Interactive Weather Map
Tropical Storm Tracking
New forecast layout! Learn more

10-Day Weather Forecast

Advertisements
Track Severe Weather on mobile